Time;durP1;ratioP1;P1;durP2;ratioP2;P2;SDS_P1;SDS_P2;PMS_P1;PMS_P2;Temp;Humidity;BMP_temperature;BMP_pressure;BME280_temperature;BME280_humidity;BME280_pressure;Samples;Min_cycle;Max_cycle;Signal;HPM_P1;HPM_P2
2021/07/21 00:02:06;;;;;;;7.68;5.43;;;15.80;75.00;;;;;;5034608;28;20033;-48
2021/07/21 00:04:31;;;;;;;10.93;7.85;;;15.80;75.50;;;;;;5034677;28;20030;-51
2021/07/21 00:06:57;;;;;;;17.33;8.18;;;15.80;75.20;;;;;;5033806;28;20351;-48
2021/07/21 00:09:23;;;;;;;12.45;7.95;;;15.70;75.90;;;;;;5034660;28;20025;-48
2021/07/21 00:14:33;;;;;;;9.98;7.13;;;15.70;75.70;;;;;;5035115;28;20124;-52
2021/07/21 00:17:06;;;;;;;14.70;6.05;;;15.60;76.10;;;;;;5034474;28;20026;-49
2021/07/21 00:22:16;;;;;;;14.75;6.93;;;15.60;76.10;;;;;;5034831;28;20129;-47
2021/07/21 00:24:43;;;;;;;9.25;6.28;;;15.70;76.30;;;;;;5034286;28;20053;-48
2021/07/21 00:27:11;;;;;;;11.20;6.00;;;15.70;75.80;;;;;;5032576;28;20052;-47
2021/07/21 00:29:36;;;;;;;8.95;6.75;;;15.70;76.30;;;;;;5034074;28;20080;-48
2021/07/21 00:32:04;;;;;;;8.75;6.20;;;15.60;76.50;;;;;;5032820;28;20449;-49
2021/07/21 00:34:30;;;;;;;9.25;6.97;;;15.50;76.80;;;;;;5034402;28;20500;-51
2021/07/21 00:36:56;;;;;;;10.13;6.57;;;15.40;77.10;;;;;;5034635;28;20018;-48
2021/07/21 00:39:22;;;;;;;9.10;6.35;;;15.40;77.00;;;;;;5034366;28;20040;-46
2021/07/21 00:41:48;;;;;;;8.10;5.57;;;15.40;76.80;;;;;;5034285;28;20159;-47
2021/07/21 00:44:14;;;;;;;14.13;6.32;;;15.30;77.40;;;;;;5034403;28;20025;-48
2021/07/21 00:46:40;;;;;;;9.70;6.63;;;15.10;78.00;;;;;;5033883;28;20029;-48
2021/07/21 00:49:06;;;;;;;9.80;6.57;;;15.10;78.00;;;;;;5033994;28;20029;-47
2021/07/21 00:51:33;;;;;;;12.45;7.38;;;15.00;78.30;;;;;;5033743;28;20020;-48
2021/07/21 00:53:59;;;;;;;10.65;6.35;;;15.10;77.90;;;;;;5033983;28;20021;-50
2021/07/21 00:56:25;;;;;;;10.40;5.72;;;15.10;77.70;;;;;;5033710;28;20052;-50
2021/07/21 00:58:51;;;;;;;9.48;6.45;;;15.30;76.90;;;;;;5033653;28;20338;-47
2021/07/21 01:01:17;;;;;;;8.90;5.18;;;15.20;77.10;;;;;;5032128;28;20025;-46
2021/07/21 01:03:43;;;;;;;11.60;6.88;;;15.20;77.10;;;;;;5033610;28;20041;-46
2021/07/21 01:06:08;;;;;;;8.73;6.45;;;15.20;77.10;;;;;;5032653;28;20053;-46
2021/07/21 01:08:34;;;;;;;11.15;5.57;;;15.10;77.30;;;;;;5033749;28;20036;-46
2021/07/21 01:11:10;;;;;;;9.23;6.60;;;15.10;77.20;;;;;;5033669;28;20022;-49
2021/07/21 01:13:48;;;;;;;10.27;6.18;;;15.20;76.70;;;;;;5033704;28;20063;-48
2021/07/21 01:16:21;;;;;;;10.75;6.13;;;15.20;76.90;;;;;;5033729;28;20033;-47
2021/07/21 01:19:08;;;;;;;9.73;6.30;;;15.20;76.60;;;;;;5033213;28;20021;-46
2021/07/21 01:22:11;;;;;;;9.95;5.95;;;15.20;78.20;;;;;;5033521;28;20458;-46
2021/07/21 01:24:55;;;;;;;9.95;6.50;;;15.10;78.60;;;;;;5033403;28;20052;-51
2021/07/21 01:27:29;;;;;;;11.00;6.57;;;14.90;79.40;;;;;;5032870;28;20053;-47
2021/07/21 01:30:01;;;;;;;9.07;6.07;;;14.80;79.80;;;;;;5033498;28;20033;-48
2021/07/21 01:32:31;;;;;;;9.98;5.93;;;14.80;80.00;;;;;;5033548;28;20013;-47
2021/07/21 01:35:04;;;;;;;10.23;6.32;;;14.90;79.70;;;;;;5033209;28;20551;-47
2021/07/21 01:37:31;;;;;;;8.70;5.82;;;14.90;79.80;;;;;;5033446;28;20030;-51
2021/07/21 01:40:03;;;;;;;7.30;5.38;;;14.80;80.00;;;;;;5032848;28;20032;-46
2021/07/21 01:42:30;;;;;;;9.32;6.05;;;14.80;80.00;;;;;;5032933;28;20523;-48
2021/07/21 01:44:58;;;;;;;9.45;6.57;;;14.80;80.00;;;;;;5032822;28;20029;-49
2021/07/21 01:47:25;;;;;;;7.72;5.75;;;14.60;80.60;;;;;;5033491;28;20381;-46
2021/07/21 01:49:53;;;;;;;10.07;5.95;;;14.60;80.70;;;;;;5032745;28;20124;-46
2021/07/21 01:52:25;;;;;;;11.05;7.07;;;14.50;80.90;;;;;;5032904;28;20034;-46
2021/07/21 01:54:54;;;;;;;10.98;6.00;;;14.50;81.20;;;;;;5033075;28;20052;-45
2021/07/21 01:57:20;;;;;;;14.73;7.40;;;14.50;81.30;;;;;;5032619;28;20018;-46
2021/07/21 01:59:47;;;;;;;9.60;6.55;;;14.50;81.40;;;;;;5032946;28;20045;-46
2021/07/21 02:02:15;;;;;;;9.10;6.95;;;14.50;81.30;;;;;;5031538;28;20443;-46
2021/07/21 02:04:42;;;;;;;8.70;5.82;;;14.40;81.50;;;;;;5032875;28;20037;-46
2021/07/21 02:07:10;;;;;;;10.20;6.57;;;14.40;81.60;;;;;;5032678;28;20028;-46
2021/07/21 02:09:37;;;;;;;9.60;5.78;;;14.40;81.50;;;;;;5032859;28;20469;-46
2021/07/21 02:12:03;;;;;;;10.65;7.00;;;14.40;81.60;;;;;;5032900;28;20026;-46
2021/07/21 02:14:29;;;;;;;12.13;7.50;;;14.40;81.50;;;;;;5032626;28;20041;-46
2021/07/21 02:16:57;;;;;;;9.93;6.75;;;14.40;81.70;;;;;;5033438;28;20021;-46
2021/07/21 02:19:24;;;;;;;10.13;6.35;;;14.40;81.40;;;;;;5036744;28;20445;-46
2021/07/21 02:21:50;;;;;;;12.57;6.82;;;14.40;81.70;;;;;;5035040;28;20120;-47
2021/07/21 02:24:16;;;;;;;7.38;5.95;;;14.30;81.60;;;;;;5036704;28;20108;-47
2021/07/21 02:26:42;;;;;;;11.25;6.82;;;14.40;81.90;;;;;;5018545;28;20061;-46
2021/07/21 02:29:08;;;;;;;11.50;6.70;;;14.40;81.70;;;;;;5036344;28;20025;-47
2021/07/21 02:31:44;;;;;;;8.90;6.13;;;14.30;81.90;;;;;;5036510;28;20025;-47
2021/07/21 02:34:10;;;;;;;11.15;6.50;;;14.30;82.10;;;;;;5036286;28;20377;-46
2021/07/21 02:36:36;;;;;;;9.60;6.43;;;14.30;82.00;;;;;;5036465;28;20025;-46
2021/07/21 02:39:05;;;;;;;10.32;6.47;;;14.30;82.00;;;;;;5034881;28;20116;-47
2021/07/21 02:41:31;;;;;;;15.68;6.97;;;14.30;82.00;;;;;;5036272;28;20030;-47
2021/07/21 02:43:57;;;;;;;8.38;6.72;;;14.40;81.70;;;;;;5036206;28;20053;-48
2021/07/21 02:46:22;;;;;;;11.32;6.88;;;14.40;81.60;;;;;;5036084;28;20056;-47
2021/07/21 02:48:48;;;;;;;13.07;7.32;;;14.40;81.50;;;;;;5036412;28;20676;-46
2021/07/21 02:51:22;;;;;;;10.35;6.53;;;14.40;81.50;;;;;;5035969;28;20052;-47
2021/07/21 02:53:59;;;;;;;13.90;7.18;;;14.40;81.50;;;;;;5036359;28;20045;-47
2021/07/21 02:56:30;;;;;;;11.00;6.03;;;14.40;81.70;;;;;;5036182;28;20030;-47
2021/07/21 02:59:04;;;;;;;12.38;7.53;;;14.30;81.70;;;;;;5034702;28;20106;-46
2021/07/21 03:01:35;;;;;;;11.95;6.65;;;14.20;82.10;;;;;;5035731;28;20053;-48
2021/07/21 03:04:02;;;;;;;8.93;6.38;;;14.20;82.50;;;;;;5034457;28;20060;-46
2021/07/21 03:06:30;;;;;;;8.95;6.13;;;14.10;82.70;;;;;;5036464;28;20104;-46
2021/07/21 03:08:56;;;;;;;11.05;6.78;;;14.10;83.10;;;;;;5035777;28;20381;-46
2021/07/21 03:11:23;;;;;;;10.00;6.38;;;14.10;82.90;;;;;;5035525;28;20017;-47
2021/07/21 03:13:55;;;;;;;8.00;5.97;;;14.10;82.90;;;;;;5035834;28;20492;-47
2021/07/21 03:16:27;;;;;;;8.95;5.55;;;14.00;83.20;;;;;;5035487;28;20358;-47
2021/07/21 03:18:56;;;;;;;11.07;6.88;;;14.00;83.40;;;;;;5035427;28;20362;-48
2021/07/21 03:21:24;;;;;;;12.30;7.27;;;13.80;83.60;;;;;;5035621;28;20025;-46
2021/07/21 03:23:50;;;;;;;10.48;7.10;;;13.80;84.00;;;;;;5035504;28;20025;-51
2021/07/21 03:26:18;;;;;;;12.43;7.38;;;13.80;84.00;;;;;;5034057;28;20068;-48
2021/07/21 03:28:45;;;;;;;12.60;7.55;;;13.80;84.20;;;;;;5035002;28;20032;-47
2021/07/21 03:31:11;;;;;;;12.05;6.85;;;13.70;84.40;;;;;;5035759;28;20106;-48
2021/07/21 03:33:39;;;;;;;11.02;6.65;;;13.70;84.70;;;;;;5034286;28;20028;-47
2021/07/21 03:36:06;;;;;;;13.40;7.57;;;13.80;84.40;;;;;;5035533;28;20371;-47
2021/07/21 03:38:33;;;;;;;13.15;6.93;;;13.80;84.20;;;;;;5035354;28;20041;-47
2021/07/21 03:40:59;;;;;;;10.48;6.93;;;13.80;84.00;;;;;;5035248;28;20059;-46
2021/07/21 03:43:25;;;;;;;10.50;6.60;;;13.80;83.80;;;;;;5035480;28;20465;-47
2021/07/21 03:45:55;;;;;;;10.60;6.70;;;13.80;84.00;;;;;;5035387;28;20465;-47
2021/07/21 03:48:23;;;;;;;11.80;6.77;;;13.80;83.80;;;;;;5034157;28;20044;-47
2021/07/21 03:50:50;;;;;;;12.15;6.55;;;13.80;83.80;;;;;;5033915;28;20032;-46
2021/07/21 03:53:16;;;;;;;11.90;6.80;;;13.80;83.90;;;;;;5034984;28;20028;-48
2021/07/21 03:55:42;;;;;;;11.80;6.72;;;13.80;83.80;;;;;;5035008;28;20025;-50
2021/07/21 03:58:08;;;;;;;12.93;7.88;;;13.90;83.70;;;;;;5035326;28;20028;-49
2021/07/21 04:00:35;;;;;;;12.38;7.70;;;13.80;83.70;;;;;;5033539;28;20469;-50
2021/07/21 04:03:02;;;;;;;14.38;6.63;;;13.80;83.80;;;;;;5034913;28;20025;-47
2021/07/21 04:05:29;;;;;;;9.75;6.75;;;13.80;83.50;;;;;;5033397;28;20470;-46
2021/07/21 04:07:56;;;;;;;10.93;6.88;;;13.80;83.60;;;;;;5034807;28;20418;-47
2021/07/21 04:10:22;;;;;;;12.93;7.85;;;13.80;83.50;;;;;;5034678;28;20021;-47
2021/07/21 04:12:51;;;;;;;13.10;7.00;;;13.80;83.30;;;;;;5034581;28;20104;-52
2021/07/21 04:15:24;;;;;;;14.10;6.95;;;13.80;83.10;;;;;;5034584;28;20018;-48
2021/07/21 04:17:51;;;;;;;10.80;6.82;;;13.90;83.00;;;;;;5034605;28;20032;-47
2021/07/21 04:20:17;;;;;;;13.45;7.85;;;13.90;82.90;;;;;;5034589;28;20037;-47
2021/07/21 04:22:44;;;;;;;9.18;6.75;;;14.00;82.50;;;;;;5034323;28;20037;-48
2021/07/21 04:25:12;;;;;;;9.75;7.22;;;14.00;82.70;;;;;;5034612;28;20115;-47
2021/07/21 04:27:40;;;;;;;13.27;7.78;;;14.00;82.70;;;;;;5034342;28;20049;-46
2021/07/21 04:30:07;;;;;;;15.27;7.03;;;14.20;82.00;;;;;;5033039;28;20049;-49
2021/07/21 04:32:33;;;;;;;12.75;7.43;;;14.10;82.70;;;;;;5034174;28;20025;-46
2021/07/21 04:35:00;;;;;;;10.10;6.47;;;14.10;83.10;;;;;;5034421;28;20041;-47
2021/07/21 04:37:25;;;;;;;11.65;6.82;;;14.10;83.20;;;;;;5034146;28;20022;-47
2021/07/21 04:39:52;;;;;;;16.30;8.30;;;14.20;83.40;;;;;;5033984;28;20055;-46
2021/07/21 04:42:18;;;;;;;12.15;7.78;;;14.20;83.30;;;;;;5034312;28;20076;-46
2021/07/21 04:44:45;;;;;;;12.07;8.25;;;14.10;83.30;;;;;;5032652;28;20026;-50
2021/07/21 04:47:12;;;;;;;12.40;8.30;;;14.20;83.90;;;;;;5033962;28;20033;-47
2021/07/21 04:49:41;;;;;;;14.55;8.95;;;14.20;83.80;;;;;;5032486;28;20025;-47
2021/07/21 04:52:08;;;;;;;15.18;9.18;;;14.40;83.20;;;;;;5033844;28;20056;-48
2021/07/21 04:54:34;;;;;;;14.25;7.93;;;14.50;83.00;;;;;;5033809;28;20053;-48
2021/07/21 04:56:59;;;;;;;13.68;9.57;;;14.50;82.40;;;;;;5034071;28;20025;-47
2021/07/21 04:59:25;;;;;;;13.32;8.73;;;14.50;83.10;;;;;;5033896;28;20049;-48
2021/07/21 05:01:51;;;;;;;10.38;8.10;;;14.50;82.90;;;;;;5033841;28;20026;-50
2021/07/21 05:04:17;;;;;;;16.20;10.18;;;14.60;83.00;;;;;;5033647;28;20022;-47
2021/07/21 05:06:46;;;;;;;15.70;9.13;;;14.80;82.50;;;;;;5033529;28;20505;-46
2021/07/21 05:09:12;;;;;;;17.30;9.23;;;14.80;82.70;;;;;;5032446;28;20091;-46
2021/07/21 05:11:38;;;;;;;25.73;11.05;;;14.80;82.60;;;;;;5033669;28;20415;-47
2021/07/21 05:14:05;;;;;;;17.92;9.98;;;14.80;82.40;;;;;;5032198;28;20032;-46
2021/07/21 05:16:30;;;;;;;18.00;10.30;;;15.00;82.20;;;;;;5033443;28;20036;-47
2021/07/21 05:18:56;;;;;;;19.40;11.32;;;15.10;81.90;;;;;;5033861;28;20025;-47
2021/07/21 05:21:23;;;;;;;23.23;13.15;;;15.20;81.60;;;;;;5033217;28;20037;-50
2021/07/21 05:23:51;;;;;;;17.35;9.82;;;15.00;82.10;;;;;;5033248;28;20157;-48
2021/07/21 05:26:17;;;;;;;18.98;10.98;;;14.90;82.90;;;;;;5032757;28;20110;-49
2021/07/21 05:28:43;;;;;;;18.25;11.60;;;14.80;83.30;;;;;;5032747;28;20029;-52
2021/07/21 05:31:09;;;;;;;23.45;12.05;;;14.90;83.30;;;;;;5032926;28;20423;-47
2021/07/21 05:33:36;;;;;;;17.92;12.18;;;14.90;83.30;;;;;;5032627;28;20013;-47
2021/07/21 05:36:03;;;;;;;21.92;11.02;;;15.10;83.00;;;;;;5032701;28;20517;-47
2021/07/21 05:38:29;;;;;;;23.80;12.55;;;15.30;82.40;;;;;;5032728;28;20033;-50
2021/07/21 05:40:55;;;;;;;20.60;11.98;;;15.50;81.90;;;;;;5032769;28;20035;-47
2021/07/21 05:43:22;;;;;;;16.63;11.80;;;15.60;82.00;;;;;;5032739;28;20033;-48
2021/07/21 05:45:49;;;;;;;20.20;11.82;;;15.60;81.30;;;;;;5032560;28;20026;-49
2021/07/21 05:48:15;;;;;;;21.13;11.18;;;15.70;81.70;;;;;;5032391;28;20030;-46
2021/07/21 05:50:40;;;;;;;19.23;12.07;;;15.70;81.20;;;;;;5032664;28;20151;-46
2021/07/21 05:53:06;;;;;;;26.13;12.75;;;15.80;81.10;;;;;;5032248;28;20466;-46
2021/07/21 05:55:32;;;;;;;20.27;12.55;;;15.80;81.00;;;;;;5032457;28;20017;-48
2021/07/21 05:57:58;;;;;;;19.17;11.88;;;16.10;80.30;;;;;;5032690;28;20053;-51
2021/07/21 06:00:23;;;;;;;21.63;11.38;;;16.20;79.40;;;;;;5032298;28;20597;-47
2021/07/21 06:02:49;;;;;;;23.63;11.88;;;16.00;80.30;;;;;;5032294;28;20029;-51
2021/07/21 06:05:15;;;;;;;18.00;11.32;;;16.20;79.40;;;;;;5032475;28;20033;-48
2021/07/21 06:07:41;;;;;;;18.95;12.80;;;16.20;79.70;;;;;;5032204;28;20026;-49
2021/07/21 06:10:07;;;;;;;19.75;11.60;;;16.00;79.90;;;;;;5032461;28;20030;-50
2021/07/21 06:12:33;;;;;;;18.52;12.23;;;16.10;79.90;;;;;;5032313;28;20017;-48
2021/07/21 06:14:59;;;;;;;16.98;11.38;;;16.30;79.30;;;;;;5032103;28;20454;-48
2021/07/21 06:17:25;;;;;;;28.27;11.98;;;16.30;79.10;;;;;;5032443;28;20014;-47
2021/07/21 06:19:51;;;;;;;17.15;10.88;;;16.50;78.30;;;;;;5031393;28;20045;-52
2021/07/21 06:22:18;;;;;;;17.02;10.73;;;16.80;76.20;;;;;;5031925;28;20026;-49
2021/07/21 06:24:48;;;;;;;17.00;11.45;;;16.80;75.60;;;;;;5032335;28;20053;-47
2021/07/21 06:27:14;;;;;;;23.50;10.75;;;16.80;75.10;;;;;;5031887;28;20049;-47
2021/07/21 06:29:40;;;;;;;17.27;11.07;;;16.80;73.90;;;;;;5032535;28;20108;-52
2021/07/21 06:32:07;;;;;;;17.13;10.55;;;16.80;74.20;;;;;;5032233;28;20072;-49
2021/07/21 06:34:33;;;;;;;15.55;9.63;;;16.80;74.00;;;;;;5031941;28;20037;-49
2021/07/21 06:36:58;;;;;;;17.42;10.15;;;16.90;72.70;;;;;;5032108;28;20179;-50
2021/07/21 06:39:24;;;;;;;15.15;9.82;;;17.00;72.00;;;;;;5032133;28;20025;-52
2021/07/21 06:41:49;;;;;;;22.35;10.70;;;17.10;71.70;;;;;;5030470;28;20453;-48
2021/07/21 06:44:15;;;;;;;17.10;9.48;;;17.30;71.10;;;;;;5031948;28;20029;-47
2021/07/21 06:46:41;;;;;;;15.57;8.65;;;17.40;71.50;;;;;;5032177;28;20060;-47
2021/07/21 06:49:07;;;;;;;15.50;9.57;;;17.60;70.30;;;;;;5032161;28;20032;-47
2021/07/21 06:51:32;;;;;;;15.20;9.80;;;17.80;69.70;;;;;;5031911;28;20028;-47
2021/07/21 06:53:58;;;;;;;11.90;8.50;;;18.00;68.70;;;;;;5032212;28;20631;-49
2021/07/21 06:56:24;;;;;;;20.83;8.48;;;18.20;66.90;;;;;;5032402;28;20079;-48
2021/07/21 06:58:51;;;;;;;11.30;7.20;;;18.20;67.10;;;;;;5030445;28;20029;-48
2021/07/21 07:01:19;;;;;;;16.77;8.27;;;18.20;66.50;;;;;;5032071;28;20358;-50
2021/07/21 07:03:46;;;;;;;9.40;7.50;;;18.30;64.40;;;;;;5032378;28;20105;-47
2021/07/21 07:06:12;;;;;;;10.75;8.27;;;18.40;65.20;;;;;;5035229;28;20477;-46
2021/07/21 07:08:37;;;;;;;21.20;10.05;;;18.50;65.20;;;;;;5035578;28;20042;-51
2021/07/21 07:11:03;;;;;;;11.68;6.63;;;18.80;64.60;;;;;;5035329;28;20116;-51
2021/07/21 07:13:29;;;;;;;15.13;7.28;;;19.10;62.50;;;;;;5035280;28;20041;-52
2021/07/21 07:15:55;;;;;;;13.85;6.53;;;19.20;62.90;;;;;;5035244;28;20030;-49
2021/07/21 07:18:21;;;;;;;9.38;6.53;;;19.10;62.90;;;;;;5035101;28;20033;-49
2021/07/21 07:20:50;;;;;;;12.55;7.05;;;19.30;61.70;;;;;;5034971;28;20048;-50
2021/07/21 07:23:15;;;;;;;17.80;5.97;;;19.30;61.70;;;;;;5035462;28;20031;-47
2021/07/21 07:25:42;;;;;;;14.13;6.65;;;19.70;60.10;;;;;;5035298;28;20123;-51
2021/07/21 07:28:08;;;;;;;8.35;6.03;;;20.00;58.40;;;;;;5034226;28;20049;-51
2021/07/21 07:30:34;;;;;;;9.80;6.05;;;20.20;58.00;;;;;;5034772;28;20022;-52
2021/07/21 07:33:00;;;;;;;9.40;5.60;;;20.20;57.40;;;;;;5035116;28;20025;-48
2021/07/21 07:35:26;;;;;;;9.30;5.95;;;20.30;56.90;;;;;;5034610;28;20022;-49
2021/07/21 07:37:52;;;;;;;9.60;5.25;;;20.50;57.20;;;;;;5034568;28;20029;-51
2021/07/21 07:40:18;;;;;;;10.00;5.85;;;21.00;54.20;;;;;;5034815;28;20032;-48
2021/07/21 07:42:44;;;;;;;6.90;4.63;;;20.90;54.90;;;;;;5034663;28;20155;-48
2021/07/21 07:45:10;;;;;;;9.27;5.55;;;21.60;52.80;;;;;;5034858;28;20025;-49
2021/07/21 07:47:36;;;;;;;10.13;4.60;;;21.90;52.00;;;;;;5034640;28;20036;-49
2021/07/21 07:50:05;;;;;;;19.35;6.97;;;22.20;51.90;;;;;;5034369;28;20030;-48
2021/07/21 07:52:30;;;;;;;11.35;5.25;;;22.60;51.00;;;;;;5034497;28;20029;-49
2021/07/21 07:54:56;;;;;;;9.52;4.95;;;22.60;49.40;;;;;;5034444;28;20120;-50
2021/07/21 07:57:22;;;;;;;9.88;5.68;;;22.20;51.80;;;;;;5034511;28;20473;-52
2021/07/21 07:59:47;;;;;;;10.00;5.28;;;22.70;51.10;;;;;;5034628;28;20040;-49
2021/07/21 08:02:13;;;;;;;10.10;6.15;;;23.10;49.50;;;;;;5033352;28;20112;-50
2021/07/21 08:04:39;;;;;;;7.38;4.93;;;23.30;49.60;;;;;;5034262;28;20112;-50
2021/07/21 08:07:04;;;;;;;12.38;5.68;;;23.30;50.00;;;;;;5033790;28;20377;-51
2021/07/21 08:09:30;;;;;;;13.40;5.00;;;23.40;49.60;;;;;;5034123;28;20034;-52
2021/07/21 08:11:58;;;;;;;7.97;4.82;;;23.00;50.80;;;;;;5034055;28;20076;-48
2021/07/21 08:14:24;;;;;;;9.57;5.85;;;22.90;51.30;;;;;;5034026;28;20022;-50
2021/07/21 08:16:51;;;;;;;11.45;5.15;;;22.80;51.00;;;;;;5034565;28;20021;-49
2021/07/21 08:19:18;;;;;;;12.15;5.65;;;23.40;50.20;;;;;;5034308;28;20495;-48
2021/07/21 08:21:43;;;;;;;9.90;5.45;;;23.60;48.90;;;;;;5034537;28;20029;-50
2021/07/21 08:24:09;;;;;;;7.75;5.30;;;24.10;47.80;;;;;;5034211;28;20095;-47
2021/07/21 08:26:35;;;;;;;8.80;5.40;;;23.90;47.10;;;;;;5033330;28;20104;-49
2021/07/21 08:29:01;;;;;;;5.05;3.95;;;23.70;47.20;;;;;;5033866;28;20041;-47
2021/07/21 08:31:27;;;;;;;12.02;6.13;;;23.60;47.10;;;;;;5033748;28;20423;-49
2021/07/21 08:33:53;;;;;;;12.07;5.13;;;23.70;47.50;;;;;;5033313;28;20026;-54
2021/07/21 08:36:21;;;;;;;9.85;5.20;;;23.90;47.50;;;;;;5033657;28;20389;-51
2021/07/21 08:38:49;;;;;;;9.27;5.32;;;23.80;47.40;;;;;;5033446;28;20029;-51
2021/07/21 08:41:15;;;;;;;7.55;5.20;;;23.80;47.30;;;;;;5033814;28;20044;-49
2021/07/21 08:43:41;;;;;;;7.88;5.05;;;24.10;46.90;;;;;;5033903;28;20388;-51
2021/07/21 08:46:06;;;;;;;9.68;5.05;;;24.00;45.90;;;;;;5034226;28;20052;-51
2021/07/21 08:48:32;;;;;;;8.73;5.10;;;23.80;42.30;;;;;;5033402;28;20033;-49
2021/07/21 08:50:58;;;;;;;10.02;5.32;;;23.90;43.40;;;;;;5033458;28;20029;-52
2021/07/21 08:53:24;;;;;;;6.47;4.40;;;24.70;42.10;;;;;;5033274;28;20519;-49
2021/07/21 08:55:50;;;;;;;6.57;4.88;;;24.00;40.20;;;;;;5033149;28;20021;-51
2021/07/21 08:58:20;;;;;;;11.32;8.10;;;24.30;40.30;;;;;;5033530;28;20026;-49
2021/07/21 09:00:50;;;;;;;9.38;5.55;;;24.10;39.80;;;;;;5033459;28;20373;-47
2021/07/21 09:03:17;;;;;;;7.82;4.60;;;24.20;40.90;;;;;;5033791;28;20030;-49
2021/07/21 09:05:42;;;;;;;6.03;3.70;;;23.80;41.60;;;;;;5032870;28;20034;-49
2021/07/21 09:08:11;;;;;;;7.15;3.55;;;23.50;40.60;;;;;;5015157;28;20224;-49
2021/07/21 09:10:37;;;;;;;3.85;2.58;;;23.30;40.70;;;;;;5032393;28;20091;-49
2021/07/21 09:13:03;;;;;;;3.85;2.30;;;23.80;38.60;;;;;;5032204;28;20064;-51
2021/07/21 09:15:30;;;;;;;3.65;2.75;;;23.20;40.50;;;;;;5033175;28;20358;-53
2021/07/21 09:18:07;;;;;;;4.93;3.53;;;23.10;41.20;;;;;;5032893;28;20462;-51
2021/07/21 09:20:39;;;;;;;7.13;3.67;;;23.20;43.00;;;;;;5032774;28;20441;-48
2021/07/21 09:23:06;;;;;;;7.32;4.18;;;23.30;43.40;;;;;;5032352;28;20493;-51
2021/07/21 09:25:34;;;;;;;6.32;4.00;;;23.70;42.70;;;;;;5030929;28;20036;-49
2021/07/21 09:28:04;;;;;;;7.28;3.83;;;23.80;41.90;;;;;;5030119;28;20409;-51
2021/07/21 09:30:40;;;;;;;4.43;3.33;;;23.60;41.80;;;;;;5032669;28;20033;-51
2021/07/21 09:33:13;;;;;;;5.38;3.80;;;23.00;43.30;;;;;;5032515;28;20091;-50
2021/07/21 09:35:45;;;;;;;5.03;3.67;;;23.30;42.90;;;;;;5032632;28;20113;-48
2021/07/21 09:38:13;;;;;;;5.93;4.25;;;23.50;42.40;;;;;;5032360;28;20413;-51
2021/07/21 09:40:46;;;;;;;6.13;3.67;;;23.80;42.00;;;;;;5032837;28;20022;-47
2021/07/21 09:43:14;;;;;;;6.32;4.00;;;23.60;42.40;;;;;;5033403;28;20026;-48
2021/07/21 09:45:42;;;;;;;4.43;3.60;;;23.10;43.90;;;;;;5032697;28;20470;-49
2021/07/21 09:48:09;;;;;;;5.63;3.78;;;22.90;44.70;;;;;;5030814;28;20373;-50
2021/07/21 09:50:38;;;;;;;5.68;3.78;;;23.20;43.90;;;;;;5032971;28;20021;-49
2021/07/21 09:53:08;;;;;;;7.20;4.28;;;23.20;44.00;;;;;;5032114;28;20179;-50
2021/07/21 09:55:35;;;;;;;4.30;3.25;;;23.30;44.20;;;;;;5031401;28;20469;-52
2021/07/21 09:58:23;;;;;;;6.03;3.90;;;23.50;43.10;;;;;;5032229;28;20079;-50
2021/07/21 10:00:49;;;;;;;7.13;4.07;;;23.40;43.70;;;;;;5032573;28;20078;-48
2021/07/21 10:03:17;;;;;;;4.55;3.65;;;23.70;42.90;;;;;;5032930;28;20121;-49
2021/07/21 10:06:12;;;;;;;7.40;4.63;;;23.50;42.90;;;;;;5030764;28;20026;-50
2021/07/21 10:08:48;;;;;;;5.85;3.90;;;24.00;41.20;;;;;;5035616;28;20476;-52
2021/07/21 10:11:27;;;;;;;6.13;4.22;;;24.00;41.30;;;;;;5030774;28;20044;-48
2021/07/21 10:13:55;;;;;;;6.45;3.72;;;24.00;41.80;;;;;;5031993;28;20018;-49
2021/07/21 10:16:40;;;;;;;6.47;3.55;;;23.70;43.40;;;;;;5031642;28;20030;-48
2021/07/21 10:19:10;;;;;;;12.68;4.40;;;24.10;41.70;;;;;;5031812;28;20096;-47
2021/07/21 10:21:37;;;;;;;;;;;23.70;43.10;;;;;;5032182;28;20028;-48
2021/07/21 10:24:04;;;;;;;5.93;3.92;;;23.40;43.90;;;;;;5031818;28;19905;-48
2021/07/21 10:26:30;;;;;;;7.10;3.90;;;23.60;43.00;;;;;;5031716;28;20072;-49
2021/07/21 10:28:57;;;;;;;6.07;3.85;;;23.60;43.10;;;;;;5031677;28;20041;-49
2021/07/21 10:31:25;;;;;;;5.75;4.18;;;23.50;43.40;;;;;;5031707;28;20030;-52
2021/07/21 10:33:51;;;;;;;10.35;4.15;;;23.40;43.90;;;;;;5031941;28;20136;-51
2021/07/21 10:36:19;;;;;;;5.18;3.40;;;23.50;45.00;;;;;;5032417;28;20026;-50
2021/07/21 10:38:45;;;;;;;4.43;3.83;;;23.30;44.90;;;;;;5034154;28;20057;-50
2021/07/21 10:41:15;;;;;;;5.28;4.25;;;23.20;44.80;;;;;;5036150;28;20455;-51
2021/07/21 10:43:50;;;;;;;5.57;3.65;;;23.00;45.30;;;;;;5035476;28;20144;-48
2021/07/21 10:46:43;;;;;;;4.22;3.60;;;23.20;45.00;;;;;;5017710;28;20477;-50
2021/07/21 10:49:23;;;;;;;5.78;3.35;;;23.50;44.30;;;;;;5035358;28;20105;-50
2021/07/21 11:00:25;;;;;;;4.07;3.30;;;24.30;43.20;;;;;;5033503;28;20025;-48
2021/07/21 11:02:52;;;;;;;4.20;3.78;;;24.50;42.20;;;;;;5034362;28;20032;-51
2021/07/21 11:05:35;;;;;;;5.75;3.65;;;24.80;41.80;;;;;;5035383;28;20535;-51
2021/07/21 11:08:04;;;;;;;5.68;3.47;;;24.80;41.20;;;;;;5035626;28;20386;-49
2021/07/21 11:10:37;;;;;;;4.10;3.28;;;24.70;42.30;;;;;;5035399;28;20120;-48
2021/07/21 11:13:04;;;;;;;4.90;3.40;;;24.90;42.10;;;;;;5034115;28;20428;-48
2021/07/21 11:15:44;;;;;;;5.05;3.70;;;24.80;41.70;;;;;;5035382;28;20518;-50
2021/07/21 11:18:22;;;;;;;5.80;3.65;;;25.30;41.40;;;;;;5035859;28;20093;-48
2021/07/21 11:21:13;;;;;;;3.95;2.92;;;25.20;40.60;;;;;;5035529;28;20544;-49
2021/07/21 11:23:50;;;;;;;7.38;3.72;;;25.40;40.70;;;;;;5035591;28;20022;-49
2021/07/21 11:26:31;;;;;;;5.63;3.65;;;24.90;41.80;;;;;;5035048;28;20057;-51
2021/07/21 11:28:58;;;;;;;4.60;3.28;;;24.60;42.80;;;;;;5034904;28;20036;-49
2021/07/21 11:31:49;;;;;;;6.10;4.00;;;24.40;42.80;;;;;;5035485;28;20359;-53
2021/07/21 11:34:33;;;;;;;5.68;3.70;;;23.80;44.20;;;;;;5035646;28;20473;-52
2021/07/21 11:37:16;;;;;;;5.45;3.97;;;24.30;43.40;;;;;;5033305;28;20021;-50
2021/07/21 11:39:50;;;;;;;5.85;4.43;;;24.20;43.90;;;;;;5034924;28;20087;-46
2021/07/21 11:42:30;;;;;;;5.50;4.47;;;24.40;42.70;;;;;;5035205;28;20363;-46
2021/07/21 11:45:08;;;;;;;6.40;3.85;;;24.70;42.30;;;;;;5035338;28;20057;-47
2021/07/21 11:47:37;;;;;;;5.70;4.57;;;25.00;41.30;;;;;;5033934;28;20025;-48
2021/07/21 11:50:07;;;;;;;4.63;3.75;;;25.00;41.10;;;;;;5031452;28;20103;-48
2021/07/21 11:52:33;;;;;;;6.22;3.97;;;25.00;41.20;;;;;;5034612;28;20030;-51
2021/07/21 11:55:00;;;;;;;7.85;5.55;;;24.90;41.90;;;;;;5034713;28;20037;-52
2021/07/21 11:57:26;;;;;;;6.40;4.28;;;25.30;40.60;;;;;;5034765;28;20052;-50
2021/07/21 11:59:57;;;;;;;5.93;4.07;;;25.20;41.20;;;;;;5034650;28;20034;-50
2021/07/21 12:02:26;;;;;;;6.07;3.90;;;25.60;40.60;;;;;;5034398;28;20432;-49
2021/07/21 12:04:57;;;;;;;7.35;4.35;;;25.80;40.40;;;;;;5034704;28;20380;-51
2021/07/21 12:07:30;;;;;;;4.65;4.03;;;25.30;40.80;;;;;;5034444;28;20025;-50
2021/07/21 12:09:55;;;;;;;5.97;4.43;;;25.30;40.70;;;;;;5034354;28;20060;-52
2021/07/21 12:12:24;;;;;;;7.15;3.42;;;24.90;41.30;;;;;;5034849;28;20485;-49
2021/07/21 12:14:55;;;;;;;8.48;3.72;;;24.80;42.20;;;;;;5034892;28;20473;-49
2021/07/21 12:17:23;;;;;;;8.90;4.65;;;25.40;41.30;;;;;;5033936;28;20030;-50
2021/07/21 12:20:00;;;;;;;6.75;4.38;;;25.20;42.00;;;;;;5032806;28;20032;-49
2021/07/21 12:22:29;;;;;;;6.40;4.22;;;24.50;42.80;;;;;;5032965;28;20025;-50
2021/07/21 12:24:57;;;;;;;6.80;4.53;;;24.90;43.50;;;;;;5016353;28;20037;-48
2021/07/21 12:27:28;;;;;;;6.75;5.85;;;24.80;45.00;;;;;;5032770;28;20083;-47
2021/07/21 12:30:00;;;;;;;9.35;6.05;;;24.70;47.80;;;;;;5034808;28;20076;-50
2021/07/21 12:32:26;;;;;;;7.63;5.03;;;24.70;48.70;;;;;;5034641;28;20017;-48
2021/07/21 12:34:53;;;;;;;7.68;5.82;;;24.50;47.70;;;;;;5034219;28;20074;-48
2021/07/21 12:37:21;;;;;;;14.07;6.35;;;24.40;47.20;;;;;;5033699;28;20017;-49
2021/07/21 12:39:48;;;;;;;11.95;7.57;;;24.60;48.70;;;;;;5033715;28;20041;-49
2021/07/21 12:42:25;;;;;;;10.38;6.20;;;24.50;49.20;;;;;;5034031;28;20112;-48
2021/07/21 12:44:59;;;;;;;13.07;6.05;;;24.60;49.60;;;;;;5034352;28;20063;-48
2021/07/21 12:47:27;;;;;;;7.68;6.20;;;24.40;49.60;;;;;;5034204;28;20025;-47
2021/07/21 12:50:02;;;;;;;10.55;6.13;;;24.40;49.60;;;;;;5033871;28;20029;-50
2021/07/21 12:52:34;;;;;;;8.45;6.03;;;24.30;48.50;;;;;;5034019;28;20077;-53
2021/07/21 12:55:00;;;;;;;7.82;6.65;;;24.20;48.30;;;;;;5033842;28;20033;-48
2021/07/21 12:57:44;;;;;;;9.45;6.70;;;24.30;49.30;;;;;;5033882;28;20028;-50
2021/07/21 13:00:14;;;;;;;9.15;6.32;;;24.40;48.10;;;;;;5033537;28;20048;-49
2021/07/21 13:02:41;;;;;;;8.20;5.82;;;24.90;47.20;;;;;;5033407;28;20114;-48